sensor_id;sensor_type;location;lat;lon;timestamp;pressure;altitude;pressure_sealevel;temperature;humidity
54948;BME280;41113;41.882;12.530;2023-05-23T00:01:29;100825.50;;;16.64;99.34
54948;BME280;41113;41.882;12.530;2023-05-23T00:04:01;100820.78;;;16.66;99.18
54948;BME280;41113;41.882;12.530;2023-05-23T00:06:27;100822.47;;;16.67;98.74
54948;BME280;41113;41.882;12.530;2023-05-23T00:08:55;100814.47;;;16.65;99.75
54948;BME280;41113;41.882;12.530;2023-05-23T00:11:21;100821.94;;;16.63;99.62
54948;BME280;41113;41.882;12.530;2023-05-23T00:13:54;100817.03;;;16.67;99.55
54948;BME280;41113;41.882;12.530;2023-05-23T00:16:20;100818.06;;;16.66;99.13
54948;BME280;41113;41.882;12.530;2023-05-23T00:18:47;100814.81;;;16.62;99.66
54948;BME280;41113;41.882;12.530;2023-05-23T00:21:14;100814.81;;;16.70;98.93
54948;BME280;41113;41.882;12.530;2023-05-23T00:23:41;100807.88;;;16.68;98.49
54948;BME280;41113;41.882;12.530;2023-05-23T00:26:10;100804.63;;;16.64;98.67
54948;BME280;41113;41.882;12.530;2023-05-23T00:28:38;100809.56;;;16.61;98.85
54948;BME280;41113;41.882;12.530;2023-05-23T00:31:03;100808.72;;;16.60;99.11
54948;BME280;41113;41.882;12.530;2023-05-23T00:33:30;100803.13;;;16.62;98.67
54948;BME280;41113;41.882;12.530;2023-05-23T00:36:00;100800.78;;;16.67;98.26
54948;BME280;41113;41.882;12.530;2023-05-23T00:38:25;100803.13;;;16.62;97.74
54948;BME280;41113;41.882;12.530;2023-05-23T00:40:52;100794.31;;;16.60;98.28
54948;BME280;41113;41.882;12.530;2023-05-23T00:43:18;100795.16;;;16.60;97.93
54948;BME280;41113;41.882;12.530;2023-05-23T00:45:46;100789.22;;;16.57;97.90
54948;BME280;41113;41.882;12.530;2023-05-23T00:48:12;100793.78;;;16.56;97.80
54948;BME280;41113;41.882;12.530;2023-05-23T00:50:37;100792.63;;;16.59;97.68
54948;BME280;41113;41.882;12.530;2023-05-23T00:53:02;100797.34;;;16.65;97.11
54948;BME280;41113;41.882;12.530;2023-05-23T00:55:29;100786.38;;;16.66;96.16
54948;BME280;41113;41.882;12.530;2023-05-23T00:57:55;100785.66;;;16.64;95.96
54948;BME280;41113;41.882;12.530;2023-05-23T01:00:25;100780.78;;;16.68;95.90
54948;BME280;41113;41.882;12.530;2023-05-23T01:02:51;100775.66;;;16.65;95.81
54948;BME280;41113;41.882;12.530;2023-05-23T01:05:17;100780.59;;;16.53;96.38
54948;BME280;41113;41.882;12.530;2023-05-23T01:07:48;100776.03;;;16.45;96.74
54948;BME280;41113;41.882;12.530;2023-05-23T01:10:17;100778.41;;;16.40;96.93
54948;BME280;41113;41.882;12.530;2023-05-23T01:16:04;100773.69;;;16.34;97.27
54948;BME280;41113;41.882;12.530;2023-05-23T01:18:37;100779.09;;;16.42;96.91
54948;BME280;41113;41.882;12.530;2023-05-23T01:21:11;100777.53;;;16.48;96.19
54948;BME280;41113;41.882;12.530;2023-05-23T01:28:55;100777.06;;;16.36;96.25
54948;BME280;41113;41.882;12.530;2023-05-23T01:31:25;100786.22;;;16.35;96.39
54948;BME280;41113;41.882;12.530;2023-05-23T01:33:52;100777.75;;;16.30;97.05
54948;BME280;41113;41.882;12.530;2023-05-23T01:36:19;100781.47;;;16.29;97.65
54948;BME280;41113;41.882;12.530;2023-05-23T01:38:45;100778.59;;;16.31;97.80
54948;BME280;41113;41.882;12.530;2023-05-23T01:41:10;100781.81;;;16.34;97.88
54948;BME280;41113;41.882;12.530;2023-05-23T01:43:36;100779.44;;;16.31;98.06
54948;BME280;41113;41.882;12.530;2023-05-23T01:46:02;100778.09;;;16.27;98.91
54948;BME280;41113;41.882;12.530;2023-05-23T01:48:29;100782.50;;;16.36;98.55
54948;BME280;41113;41.882;12.530;2023-05-23T01:50:55;100791.94;;;16.48;98.33
54948;BME280;41113;41.882;12.530;2023-05-23T01:53:21;100783.84;;;16.40;98.60
54948;BME280;41113;41.882;12.530;2023-05-23T01:55:47;100789.38;;;16.55;97.88
54948;BME280;41113;41.882;12.530;2023-05-23T01:58:13;100797.72;;;16.70;96.77
54948;BME280;41113;41.882;12.530;2023-05-23T02:00:39;100793.25;;;16.85;95.93
54948;BME280;41113;41.882;12.530;2023-05-23T02:03:05;100802.38;;;17.00;94.93
54948;BME280;41113;41.882;12.530;2023-05-23T02:05:30;100787.16;;;16.91;94.85
54948;BME280;41113;41.882;12.530;2023-05-23T02:07:55;100787.19;;;16.75;95.17
54948;BME280;41113;41.882;12.530;2023-05-23T02:10:21;100785.47;;;16.82;95.29
54948;BME280;41113;41.882;12.530;2023-05-23T02:12:47;100789.84;;;16.91;94.87
54948;BME280;41113;41.882;12.530;2023-05-23T02:15:12;100785.97;;;16.77;94.66
54948;BME280;41113;41.882;12.530;2023-05-23T02:17:38;100789.38;;;16.79;94.91
54948;BME280;41113;41.882;12.530;2023-05-23T02:20:06;100780.00;;;16.98;94.42
54948;BME280;41113;41.882;12.530;2023-05-23T02:22:31;100774.28;;;16.77;94.27
54948;BME280;41113;41.882;12.530;2023-05-23T02:24:57;100778.38;;;16.48;96.24
54948;BME280;41113;41.882;12.530;2023-05-23T02:27:22;100773.97;;;16.56;96.20
54948;BME280;41113;41.882;12.530;2023-05-23T02:29:47;100775.34;;;16.68;95.69
54948;BME280;41113;41.882;12.530;2023-05-23T02:32:13;100771.25;;;16.72;95.11
54948;BME280;41113;41.882;12.530;2023-05-23T02:34:38;100769.34;;;16.80;94.78
54948;BME280;41113;41.882;12.530;2023-05-23T02:37:04;100774.59;;;16.82;94.37
54948;BME280;41113;41.882;12.530;2023-05-23T02:39:29;100786.78;;;16.94;94.08
54948;BME280;41113;41.882;12.530;2023-05-23T02:41:55;100774.59;;;16.82;93.98
54948;BME280;41113;41.882;12.530;2023-05-23T02:44:20;100778.31;;;16.89;94.45
54948;BME280;41113;41.882;12.530;2023-05-23T02:46:45;100777.09;;;17.00;93.95
54948;BME280;41113;41.882;12.530;2023-05-23T02:49:11;100775.22;;;17.00;93.28
54948;BME280;41113;41.882;12.530;2023-05-23T02:51:36;100779.69;;;16.85;93.11
54948;BME280;41113;41.882;12.530;2023-05-23T02:54:02;100777.34;;;16.74;93.67
54948;BME280;41113;41.882;12.530;2023-05-23T02:56:27;100778.38;;;16.57;94.12
54948;BME280;41113;41.882;12.530;2023-05-23T02:58:53;100786.19;;;16.43;95.53
54948;BME280;41113;41.882;12.530;2023-05-23T03:01:18;100791.25;;;16.55;95.21
54948;BME280;41113;41.882;12.530;2023-05-23T03:03:44;100789.06;;;16.66;94.42
54948;BME280;41113;41.882;12.530;2023-05-23T03:06:09;100793.28;;;16.61;94.29
54948;BME280;41113;41.882;12.530;2023-05-23T03:08:40;100793.63;;;16.49;94.96
54948;BME280;41113;41.882;12.530;2023-05-23T03:11:06;100797.06;;;16.35;97.10
54948;BME280;41113;41.882;12.530;2023-05-23T03:13:31;100787.25;;;16.26;97.71
54948;BME280;41113;41.882;12.530;2023-05-23T03:15:57;100799.06;;;16.25;98.09
54948;BME280;41113;41.882;12.530;2023-05-23T03:18:22;100795.72;;;16.31;98.53
54948;BME280;41113;41.882;12.530;2023-05-23T03:20:47;100796.22;;;16.10;98.71
54948;BME280;41113;41.882;12.530;2023-05-23T03:23:13;100799.44;;;15.98;99.24
54948;BME280;41113;41.882;12.530;2023-05-23T03:25:38;100803.16;;;15.97;98.99
54948;BME280;41113;41.882;12.530;2023-05-23T03:28:03;100803.31;;;16.11;98.36
54948;BME280;41113;41.882;12.530;2023-05-23T03:30:29;100802.50;;;16.27;97.08
54948;BME280;41113;41.882;12.530;2023-05-23T03:32:54;100806.34;;;16.25;96.79
54948;BME280;41113;41.882;12.530;2023-05-23T03:35:21;100813.66;;;16.32;96.60
54948;BME280;41113;41.882;12.530;2023-05-23T03:37:46;100808.22;;;16.24;97.02
54948;BME280;41113;41.882;12.530;2023-05-23T03:40:12;100809.59;;;16.20;97.23
54948;BME280;41113;41.882;12.530;2023-05-23T03:42:38;100811.97;;;16.07;97.66
54948;BME280;41113;41.882;12.530;2023-05-23T03:45:04;100813.00;;;15.98;98.52
54948;BME280;41113;41.882;12.530;2023-05-23T03:47:30;100814.66;;;15.91;98.58
54948;BME280;41113;41.882;12.530;2023-05-23T03:49:55;100813.28;;;15.86;99.27
54948;BME280;41113;41.882;12.530;2023-05-23T03:52:21;100810.91;;;15.75;100.00
54948;BME280;41113;41.882;12.530;2023-05-23T03:54:47;100813.47;;;15.77;99.94
54948;BME280;41113;41.882;12.530;2023-05-23T03:57:12;100811.78;;;15.92;98.95
54948;BME280;41113;41.882;12.530;2023-05-23T03:59:39;100811.44;;;16.19;97.87
54948;BME280;41113;41.882;12.530;2023-05-23T04:02:04;100817.38;;;16.47;95.76
54948;BME280;41113;41.882;12.530;2023-05-23T04:04:30;100816.69;;;16.62;93.60
54948;BME280;41113;41.882;12.530;2023-05-23T04:06:56;100812.25;;;16.77;92.81
54948;BME280;41113;41.882;12.530;2023-05-23T04:09:22;100813.22;;;17.00;90.44
54948;BME280;41113;41.882;12.530;2023-05-23T04:11:47;100812.13;;;17.18;89.57
54948;BME280;41113;41.882;12.530;2023-05-23T04:14:13;100823.22;;;17.39;87.55
54948;BME280;41113;41.882;12.530;2023-05-23T04:16:38;100819.25;;;17.89;84.59
54948;BME280;41113;41.882;12.530;2023-05-23T04:19:06;100821.47;;;18.46;83.23
54948;BME280;41113;41.882;12.530;2023-05-23T04:21:31;100821.97;;;19.02;78.11
54948;BME280;41113;41.882;12.530;2023-05-23T04:23:57;100825.03;;;18.84;78.50
54948;BME280;41113;41.882;12.530;2023-05-23T04:26:22;100822.97;;;18.86;77.54
54948;BME280;41113;41.882;12.530;2023-05-23T04:28:48;100823.72;;;19.39;75.80
54948;BME280;41113;41.882;12.530;2023-05-23T04:31:14;100825.47;;;19.97;75.10
54948;BME280;41113;41.882;12.530;2023-05-23T04:33:39;100816.25;;;20.41;73.41
54948;BME280;41113;41.882;12.530;2023-05-23T04:36:05;100817.06;;;21.25;69.83
54948;BME280;41113;41.882;12.530;2023-05-23T04:38:33;100821.13;;;20.73;67.64
54948;BME280;41113;41.882;12.530;2023-05-23T04:41:00;100817.34;;;21.09;69.95
54948;BME280;41113;41.882;12.530;2023-05-23T04:43:25;100819.81;;;21.99;65.45
54948;BME280;41113;41.882;12.530;2023-05-23T04:45:53;100815.66;;;22.70;63.82
54948;BME280;41113;41.882;12.530;2023-05-23T04:48:19;100816.31;;;22.45;62.39
54948;BME280;41113;41.882;12.530;2023-05-23T04:50:46;100816.50;;;22.90;61.45
54948;BME280;41113;41.882;12.530;2023-05-23T04:53:12;100827.84;;;23.13;59.29
54948;BME280;41113;41.882;12.530;2023-05-23T04:55:38;100822.78;;;23.17;58.03
54948;BME280;41113;41.882;12.530;2023-05-23T04:58:03;100828.69;;;23.01;59.11
54948;BME280;41113;41.882;12.530;2023-05-23T05:00:28;100831.63;;;23.77;60.93
54948;BME280;41113;41.882;12.530;2023-05-23T05:02:54;100829.53;;;23.08;58.15
54948;BME280;41113;41.882;12.530;2023-05-23T05:05:20;100827.47;;;22.63;62.09
54948;BME280;41113;41.882;12.530;2023-05-23T05:07:45;100838.41;;;22.37;60.92
54948;BME280;41113;41.882;12.530;2023-05-23T05:10:11;100836.34;;;22.85;60.71
54948;BME280;41113;41.882;12.530;2023-05-23T05:12:45;100844.97;;;22.49;61.26
54948;BME280;41113;41.882;12.530;2023-05-23T05:15:15;100841.78;;;22.39;61.36
54948;BME280;41113;41.882;12.530;2023-05-23T05:17:42;100841.22;;;23.48;60.74
54948;BME280;41113;41.882;12.530;2023-05-23T05:20:09;100844.63;;;23.88;58.08
54948;BME280;41113;41.882;12.530;2023-05-23T05:22:35;100844.75;;;22.90;60.36
54948;BME280;41113;41.882;12.530;2023-05-23T05:25:02;100836.72;;;22.76;60.81
54948;BME280;41113;41.882;12.530;2023-05-23T05:27:27;100838.81;;;22.74;60.07
54948;BME280;41113;41.882;12.530;2023-05-23T05:29:53;100846.00;;;22.94;60.62
54948;BME280;41113;41.882;12.530;2023-05-23T05:32:22;100842.81;;;23.04;57.92
54948;BME280;41113;41.882;12.530;2023-05-23T05:34:47;100853.09;;;23.22;57.61
54948;BME280;41113;41.882;12.530;2023-05-23T05:37:15;100847.97;;;23.45;58.56
54948;BME280;41113;41.882;12.530;2023-05-23T05:39:40;100840.91;;;24.45;56.82
54948;BME280;41113;41.882;12.530;2023-05-23T05:42:06;100836.50;;;25.12;52.09
54948;BME280;41113;41.882;12.530;2023-05-23T05:44:33;100839.78;;;24.96;50.52
54948;BME280;41113;41.882;12.530;2023-05-23T05:47:00;100835.28;;;24.59;52.46
54948;BME280;41113;41.882;12.530;2023-05-23T05:49:25;100838.66;;;23.98;53.61
54948;BME280;41113;41.882;12.530;2023-05-23T05:51:51;100841.06;;;24.50;53.42
54948;BME280;41113;41.882;12.530;2023-05-23T05:54:17;100846.09;;;23.90;54.17
54948;BME280;41113;41.882;12.530;2023-05-23T05:56:42;100840.78;;;23.57;55.71
54948;BME280;41113;41.882;12.530;2023-05-23T05:59:07;100835.72;;;23.48;55.81
54948;BME280;41113;41.882;12.530;2023-05-23T06:01:34;100839.97;;;23.44;54.84
54948;BME280;41113;41.882;12.530;2023-05-23T06:03:59;100842.16;;;23.09;56.29
54948;BME280;41113;41.882;12.530;2023-05-23T06:06:25;100837.88;;;24.22;54.43
54948;BME280;41113;41.882;12.530;2023-05-23T06:08:50;100832.59;;;24.95;52.95
54948;BME280;41113;41.882;12.530;2023-05-23T06:11:16;100834.03;;;25.23;52.47
54948;BME280;41113;41.882;12.530;2023-05-23T06:13:41;100825.22;;;25.99;47.83
54948;BME280;41113;41.882;12.530;2023-05-23T06:16:07;100833.09;;;25.65;49.16
54948;BME280;41113;41.882;12.530;2023-05-23T06:18:32;100823.94;;;25.53;48.69
54948;BME280;41113;41.882;12.530;2023-05-23T06:20:59;100832.59;;;25.38;51.53
54948;BME280;41113;41.882;12.530;2023-05-23T06:23:24;100824.22;;;25.63;48.95
54948;BME280;41113;41.882;12.530;2023-05-23T06:25:50;100837.25;;;26.04;49.57
54948;BME280;41113;41.882;12.530;2023-05-23T06:28:15;100836.28;;;26.41;49.01
54948;BME280;41113;41.882;12.530;2023-05-23T06:30:40;100829.84;;;26.93;45.84
54948;BME280;41113;41.882;12.530;2023-05-23T06:33:06;100837.13;;;26.64;48.06
54948;BME280;41113;41.882;12.530;2023-05-23T06:35:31;100839.00;;;25.32;49.57
54948;BME280;41113;41.882;12.530;2023-05-23T06:37:57;100847.16;;;23.89;55.05
54948;BME280;41113;41.882;12.530;2023-05-23T06:40:22;100841.34;;;22.68;57.60
54948;BME280;41113;41.882;12.530;2023-05-23T06:42:48;100846.44;;;22.52;59.38
54948;BME280;41113;41.882;12.530;2023-05-23T06:45:13;100844.53;;;22.52;59.39
54948;BME280;41113;41.882;12.530;2023-05-23T06:47:38;100851.25;;;23.03;58.23
54948;BME280;41113;41.882;12.530;2023-05-23T06:50:08;100849.34;;;23.16;57.54
54948;BME280;41113;41.882;12.530;2023-05-23T06:52:33;100848.84;;;23.33;57.59
54948;BME280;41113;41.882;12.530;2023-05-23T06:54:59;100857.13;;;23.19;58.11
54948;BME280;41113;41.882;12.530;2023-05-23T06:57:24;100855.47;;;22.65;58.88
54948;BME280;41113;41.882;12.530;2023-05-23T06:59:49;100852.75;;;22.92;58.60
54948;BME280;41113;41.882;12.530;2023-05-23T07:02:15;100847.66;;;23.02;57.70
54948;BME280;41113;41.882;12.530;2023-05-23T07:04:40;100851.44;;;23.14;57.62
54948;BME280;41113;41.882;12.530;2023-05-23T07:07:05;100854.63;;;22.78;59.22
54948;BME280;41113;41.882;12.530;2023-05-23T07:09:31;100852.53;;;22.47;59.39
54948;BME280;41113;41.882;12.530;2023-05-23T07:11:56;100856.13;;;22.81;58.94
54948;BME280;41113;41.882;12.530;2023-05-23T07:14:21;100851.28;;;22.83;59.33
54948;BME280;41113;41.882;12.530;2023-05-23T07:16:47;100852.13;;;22.90;58.98
54948;BME280;41113;41.882;12.530;2023-05-23T07:19:12;100848.06;;;23.19;58.41
54948;BME280;41113;41.882;12.530;2023-05-23T07:21:39;100854.94;;;23.35;57.92
54948;BME280;41113;41.882;12.530;2023-05-23T07:24:04;100851.34;;;23.47;57.69
54948;BME280;41113;41.882;12.530;2023-05-23T07:26:30;100848.13;;;24.02;56.19
54948;BME280;41113;41.882;12.530;2023-05-23T07:28:55;100854.22;;;23.66;57.54
54948;BME280;41113;41.882;12.530;2023-05-23T07:31:21;100856.06;;;23.07;58.82
54948;BME280;41113;41.882;12.530;2023-05-23T07:33:46;100842.09;;;23.35;58.49
54948;BME280;41113;41.882;12.530;2023-05-23T07:36:11;100845.59;;;23.62;58.23
54948;BME280;41113;41.882;12.530;2023-05-23T07:38:38;100851.19;;;23.87;57.47
54948;BME280;41113;41.882;12.530;2023-05-23T07:41:03;100851.88;;;23.69;58.01
54948;BME280;41113;41.882;12.530;2023-05-23T07:43:28;100845.66;;;23.94;57.58
54948;BME280;41113;41.882;12.530;2023-05-23T07:45:54;100844.25;;;24.16;57.06
54948;BME280;41113;41.882;12.530;2023-05-23T07:48:19;100841.00;;;24.57;56.09
54948;BME280;41113;41.882;12.530;2023-05-23T07:50:45;100845.78;;;24.43;55.70
54948;BME280;41113;41.882;12.530;2023-05-23T07:53:10;100838.97;;;23.83;57.91
54948;BME280;41113;41.882;12.530;2023-05-23T07:55:36;100844.50;;;23.76;58.16
54948;BME280;41113;41.882;12.530;2023-05-23T07:58:01;100844.97;;;23.60;57.18
54948;BME280;41113;41.882;12.530;2023-05-23T08:00:26;100846.63;;;23.74;57.26
54948;BME280;41113;41.882;12.530;2023-05-23T08:02:52;100842.28;;;24.23;56.17
54948;BME280;41113;41.882;12.530;2023-05-23T08:05:17;100836.59;;;24.25;55.86
54948;BME280;41113;41.882;12.530;2023-05-23T08:07:44;100836.41;;;24.51;54.95
54948;BME280;41113;41.882;12.530;2023-05-23T08:10:09;100831.00;;;24.38;56.41
54948;BME280;41113;41.882;12.530;2023-05-23T08:12:35;100836.41;;;24.76;55.26
54948;BME280;41113;41.882;12.530;2023-05-23T08:15:00;100839.63;;;24.91;55.06
54948;BME280;41113;41.882;12.530;2023-05-23T08:17:26;100839.31;;;25.06;54.37
54948;BME280;41113;41.882;12.530;2023-05-23T08:19:52;100844.41;;;25.02;54.36
54948;BME280;41113;41.882;12.530;2023-05-23T08:22:17;100842.69;;;25.08;53.94
54948;BME280;41113;41.882;12.530;2023-05-23T08:24:42;100837.25;;;25.20;53.73
54948;BME280;41113;41.882;12.530;2023-05-23T08:27:08;100833.38;;;24.59;54.90
54948;BME280;41113;41.882;12.530;2023-05-23T08:29:33;100839.22;;;24.44;54.28
54948;BME280;41113;41.882;12.530;2023-05-23T08:31:59;100837.94;;;24.47;55.63
54948;BME280;41113;41.882;12.530;2023-05-23T08:34:24;100839.41;;;24.93;54.49
54948;BME280;41113;41.882;12.530;2023-05-23T08:36:50;100836.09;;;25.09;53.94
54948;BME280;41113;41.882;12.530;2023-05-23T08:39:16;100841.84;;;25.07;53.49
54948;BME280;41113;41.882;12.530;2023-05-23T08:41:42;100839.53;;;25.23;53.43
54948;BME280;41113;41.882;12.530;2023-05-23T08:44:07;100843.78;;;25.00;52.27
54948;BME280;41113;41.882;12.530;2023-05-23T08:46:38;100836.91;;;24.66;51.79
54948;BME280;41113;41.882;12.530;2023-05-23T08:49:06;100839.63;;;24.73;53.55
54948;BME280;41113;41.882;12.530;2023-05-23T08:51:34;100841.53;;;24.72;52.42
54948;BME280;41113;41.882;12.530;2023-05-23T08:54:01;100843.44;;;24.90;53.21
54948;BME280;41113;41.882;12.530;2023-05-23T08:56:27;100845.75;;;24.93;53.25
54948;BME280;41113;41.882;12.530;2023-05-23T08:58:53;100841.84;;;25.07;52.71
54948;BME280;41113;41.882;12.530;2023-05-23T09:01:19;100838.53;;;25.35;52.10
54948;BME280;41113;41.882;12.530;2023-05-23T09:03:44;100842.91;;;25.43;51.17
54948;BME280;41113;41.882;12.530;2023-05-23T09:06:10;100835.34;;;25.38;51.84
54948;BME280;41113;41.882;12.530;2023-05-23T09:08:36;100832.66;;;25.32;49.79
54948;BME280;41113;41.882;12.530;2023-05-23T09:11:03;100831.91;;;25.43;51.19
54948;BME280;41113;41.882;12.530;2023-05-23T09:13:32;100821.88;;;25.67;50.37
54948;BME280;41113;41.882;12.530;2023-05-23T09:18:43;100818.72;;;25.82;46.90
54948;BME280;41113;41.882;12.530;2023-05-23T09:21:10;100816.25;;;25.92;49.76
54948;BME280;41113;41.882;12.530;2023-05-23T09:23:37;100815.16;;;25.93;49.85
54948;BME280;41113;41.882;12.530;2023-05-23T09:26:08;100818.41;;;26.01;49.70
54948;BME280;41113;41.882;12.530;2023-05-23T09:28:34;100819.78;;;26.11;49.26
54948;BME280;41113;41.882;12.530;2023-05-23T09:31:05;100819.69;;;26.17;49.04
54948;BME280;41113;41.882;12.530;2023-05-23T09:33:35;100818.72;;;26.23;48.68
54948;BME280;41113;41.882;12.530;2023-05-23T09:36:03;100822.03;;;26.02;48.62
54948;BME280;41113;41.882;12.530;2023-05-23T09:38:29;100817.38;;;26.02;48.57
54948;BME280;41113;41.882;12.530;2023-05-23T09:40:55;100810.44;;;26.12;48.32
54948;BME280;41113;41.882;12.530;2023-05-23T09:43:22;100813.31;;;26.05;48.01
54948;BME280;41113;41.882;12.530;2023-05-23T09:45:47;100813.63;;;25.97;46.82
54948;BME280;41113;41.882;12.530;2023-05-23T09:48:14;100813.38;;;25.68;48.09
54948;BME280;41113;41.882;12.530;2023-05-23T09:50:39;100809.25;;;25.78;48.21
54948;BME280;41113;41.882;12.530;2023-05-23T09:53:05;100804.75;;;25.95;48.11
54948;BME280;41113;41.882;12.530;2023-05-23T09:55:30;100804.59;;;26.08;47.78
54948;BME280;41113;41.882;12.530;2023-05-23T09:57:57;100801.84;;;26.20;47.41
54948;BME280;41113;41.882;12.530;2023-05-23T10:00:23;100802.44;;;26.10;47.61
54948;BME280;41113;41.882;12.530;2023-05-23T10:03:09;100801.06;;;26.01;46.49
54948;BME280;41113;41.882;12.530;2023-05-23T10:08:18;100806.75;;;26.29;45.85
54948;BME280;41113;41.882;12.530;2023-05-23T10:13:24;100802.81;;;26.25;46.04
54948;BME280;41113;41.882;12.530;2023-05-23T10:16:08;100805.31;;;26.15;45.00
54948;BME280;41113;41.882;12.530;2023-05-23T10:18:42;100804.59;;;26.08;43.64
54948;BME280;41113;41.882;12.530;2023-05-23T10:21:10;100802.63;;;25.97;46.23
54948;BME280;41113;41.882;12.530;2023-05-23T10:23:36;100801.41;;;25.93;46.21
54948;BME280;41113;41.882;12.530;2023-05-23T10:26:03;100805.97;;;25.99;46.13
54948;BME280;41113;41.882;12.530;2023-05-23T10:28:29;100802.31;;;26.05;46.18
54948;BME280;41113;41.882;12.530;2023-05-23T10:30:55;100794.66;;;26.07;45.75
54948;BME280;41113;41.882;12.530;2023-05-23T10:33:22;100789.63;;;26.16;45.91
54948;BME280;41113;41.882;12.530;2023-05-23T10:36:42;100792.41;;;26.27;45.09
54948;BME280;41113;41.882;12.530;2023-05-23T10:39:00;100796.53;;;26.37;44.96
54948;BME280;41113;41.882;12.530;2023-05-23T10:41:35;100798.94;;;26.45;44.56
54948;BME280;41113;41.882;12.530;2023-05-23T10:44:15;100797.25;;;26.44;43.77
54948;BME280;41113;41.882;12.530;2023-05-23T10:52:08;100783.41;;;26.32;45.36
54948;BME280;41113;41.882;12.530;2023-05-23T10:54:44;100790.72;;;26.26;44.75
54948;BME280;41113;41.882;12.530;2023-05-23T10:57:14;100788.56;;;26.28;45.04
54948;BME280;41113;41.882;12.530;2023-05-23T10:59:40;100787.84;;;26.21;45.07
54948;BME280;41113;41.882;12.530;2023-05-23T11:02:13;100779.34;;;26.23;44.78
54948;BME280;41113;41.882;12.530;2023-05-23T11:04:42;100784.72;;;26.29;45.01
54948;BME280;41113;41.882;12.530;2023-05-23T11:07:31;100789.50;;;26.22;43.03
54948;BME280;41113;41.882;12.530;2023-05-23T11:10:23;100780.41;;;26.10;41.86
54948;BME280;41113;41.882;12.530;2023-05-23T11:12:48;100785.09;;;26.21;44.80
54948;BME280;41113;41.882;12.530;2023-05-23T11:17:52;100771.56;;;26.20;42.82
54948;BME280;41113;41.882;12.530;2023-05-23T11:20:28;100770.38;;;26.27;44.33
54948;BME280;41113;41.882;12.530;2023-05-23T11:23:02;100772.03;;;26.28;43.68
54948;BME280;41113;41.882;12.530;2023-05-23T11:25:50;100770.66;;;26.38;43.82
54948;BME280;41113;41.882;12.530;2023-05-23T11:28:16;100764.91;;;26.51;44.27
54948;BME280;41113;41.882;12.530;2023-05-23T11:30:42;100772.09;;;26.52;44.50
54948;BME280;41113;41.882;12.530;2023-05-23T11:33:08;100760.84;;;26.42;43.71
54948;BME280;41113;41.882;12.530;2023-05-23T11:35:36;100759.88;;;26.48;44.51
54948;BME280;41113;41.882;12.530;2023-05-23T11:38:03;100755.22;;;26.60;44.21
54948;BME280;41113;41.882;12.530;2023-05-23T11:40:31;100764.56;;;26.71;44.40
54948;BME280;41113;41.882;12.530;2023-05-23T11:42:58;100753.75;;;26.81;44.48
54948;BME280;41113;41.882;12.530;2023-05-23T11:45:26;100767.09;;;26.72;44.28
54948;BME280;41113;41.882;12.530;2023-05-23T11:47:52;100751.84;;;26.58;45.35
54948;BME280;41113;41.882;12.530;2023-05-23T11:50:17;100750.53;;;26.49;45.99
54948;BME280;41113;41.882;12.530;2023-05-23T11:52:45;100758.44;;;26.57;46.71
54948;BME280;41113;41.882;12.530;2023-05-23T11:55:19;100753.66;;;26.64;46.27
54948;BME280;41113;41.882;12.530;2023-05-23T11:57:45;100747.66;;;26.79;46.21
54948;BME280;41113;41.882;12.530;2023-05-23T12:00:11;100746.44;;;26.86;46.44
54948;BME280;41113;41.882;12.530;2023-05-23T12:02:38;100752.66;;;26.93;46.52
54948;BME280;41113;41.882;12.530;2023-05-23T12:05:08;100740.94;;;26.86;47.08
54948;BME280;41113;41.882;12.530;2023-05-23T12:07:34;100741.03;;;26.91;47.11
54948;BME280;41113;41.882;12.530;2023-05-23T12:10:03;100740.09;;;26.86;47.65
54948;BME280;41113;41.882;12.530;2023-05-23T12:12:30;100738.91;;;26.82;47.71
54948;BME280;41113;41.882;12.530;2023-05-23T12:14:56;100734.56;;;26.86;47.75
54948;BME280;41113;41.882;12.530;2023-05-23T12:17:22;100734.22;;;26.82;47.97
54948;BME280;41113;41.882;12.530;2023-05-23T12:19:48;100738.56;;;26.78;48.47
54948;BME280;41113;41.882;12.530;2023-05-23T12:22:13;100737.59;;;26.84;48.44
54948;BME280;41113;41.882;12.530;2023-05-23T12:24:44;100737.22;;;26.81;48.27
54948;BME280;41113;41.882;12.530;2023-05-23T12:27:11;100738.06;;;26.81;48.94
54948;BME280;41113;41.882;12.530;2023-05-23T12:29:37;100748.88;;;26.71;49.05
54948;BME280;41113;41.882;12.530;2023-05-23T12:32:05;100741.69;;;26.70;49.17
54948;BME280;41113;41.882;12.530;2023-05-23T12:34:31;100738.44;;;26.61;49.64
54948;BME280;41113;41.882;12.530;2023-05-23T12:36:58;100749.34;;;26.56;49.36
54948;BME280;41113;41.882;12.530;2023-05-23T12:39:27;100749.34;;;26.68;49.29
54948;BME280;41113;41.882;12.530;2023-05-23T12:41:53;100755.81;;;26.62;49.45
54948;BME280;41113;41.882;12.530;2023-05-23T12:44:23;100757.97;;;26.60;49.62
54948;BME280;41113;41.882;12.530;2023-05-23T12:46:48;100758.09;;;26.53;49.90
54948;BME280;41113;41.882;12.530;2023-05-23T12:49:13;100758.94;;;26.54;49.88
54948;BME280;41113;41.882;12.530;2023-05-23T12:51:39;100759.63;;;26.61;49.80
54948;BME280;41113;41.882;12.530;2023-05-23T12:54:05;100758.06;;;26.65;49.45
54948;BME280;41113;41.882;12.530;2023-05-23T12:56:30;100762.50;;;26.66;49.44
54948;BME280;41113;41.882;12.530;2023-05-23T12:58:57;100755.81;;;26.62;49.38
54948;BME280;41113;41.882;12.530;2023-05-23T13:01:22;100752.72;;;26.70;49.01
54948;BME280;41113;41.882;12.530;2023-05-23T13:03:48;100751.13;;;26.62;49.01